Latest Weather Observations for Ernabella/Pukatja

IDS60801

Issued at 8:31 pm CDT Tuesday 6 December 2016 (issued every 30 minutes, with the page automatically refreshed every 10 minutes)

About weather observations | Map of weather stations | Latest weather observations for SA | Other Formats
Station Details ID: 016097 Name: PUKATJA Lat: -26.26 Lon: 132.18 Height: 703.2 m
Data from the previous 72 hours. | See also: Recent months at Ernabella/Pukatja
Date/Time
CDT
Temp
°C
App
Temp
°C
Dew
Point
°C
Rel
Hum
%
Delta-T
°C
Wind Press
QNH
hPa
Press
MSL
hPa
Rain since
9am
mm
Dir  Spd
km/h
Gust
km/h
Spd
kts
Gust
kts
06/08:30pm 20.1 23.3 19.8 98 0.2 WNW 2 6 1 3 1015.8 1011.0 -
06/08:00pm 20.0 22.5 19.8 99 0.1 NE 6 11 3 6 1016.0 1011.2 4.6
06/07:30pm 20.2 22.2 19.9 98 0.2 N 9 13 5 7 1016.4 1011.6 4.6
06/07:00pm 20.7 22.9 20.4 98 0.2 N 9 15 5 8 1016.7 1011.9 4.2
06/06:30pm 21.0 22.6 19.1 89 1.2 WSW 9 15 5 8 1016.7 1011.9 3.6
06/06:00pm 21.4 23.0 18.2 82 2.1 N 7 13 4 7 1016.3 1011.5 3.2
06/05:30pm 21.6 23.1 18.8 84 1.8 E 9 11 5 6 1016.0 1011.2 3.2
06/05:00pm 22.2 24.0 18.8 81 2.2 NW 7 15 4 8 1016.3 1011.5 3.2
06/04:30pm 21.9 24.0 20.2 90 1.1 NNE 9 11 5 6 1016.3 1011.5 3.2
06/04:00pm 22.0 25.1 20.3 90 1.1 NNE 4 7 2 4 1016.7 1011.9 3.0
06/03:30pm 21.5 24.1 21.2 98 0.2 NNW 9 11 5 6 1017.0 1012.2 2.8
06/03:00pm 21.1 21.6 20.1 94 0.7 N 17 24 9 13 1017.0 1012.2 2.6
06/02:30pm 21.0 21.7 20.5 97 0.3 N 17 22 9 12 1017.4 1012.6 2.6
06/02:00pm 20.8 23.0 20.5 98 0.2 NNW 9 15 5 8 1017.7 1012.9 2.2
06/01:30pm 21.0 22.4 19.5 91 1.0 N 11 17 6 9 1017.7 1012.9 2.0
06/01:00pm 20.8 21.9 20.5 98 0.2 NNE 15 20 8 11 1018.2 1013.5 1.8
06/12:30pm 20.7 22.4 20.2 97 0.3 NE 11 13 6 7 1018.1 1013.4 1.8
06/12:00pm 20.8 22.3 18.9 89 1.2 SW 9 11 5 6 1018.7 1013.9 1.6
06/11:30am 20.3 22.4 19.0 92 0.8 N 6 9 3 5 1018.3 1013.6 1.6
06/11:00am 19.6 22.6 19.3 98 0.2 NNW 2 6 1 3 1018.5 1013.7 1.6
06/10:30am 19.4 21.6 19.1 98 0.2 NNW 6 7 3 4 1018.8 1014.0 1.6
06/10:00am 19.1 22.3 18.8 98 0.2 CALM 0 0 0 0 1019.0 1014.2 1.0
06/09:30am 18.6 20.2 18.3 98 0.2 SSW 7 9 4 5 1019.3 1014.5 0.8
06/09:00am 18.6 21.6 18.4 99 0.1 CALM 0 0 0 0 1019.7 1015.0 13.8
06/08:30am 18.3 21.2 18.1 99 0.1 CALM 0 0 0 0 1019.6 1014.9 13.2
06/08:00am 18.1 20.1 17.9 99 0.1 NNW 4 7 2 4 1019.6 1014.9 13.0
06/07:30am 18.0 18.6 17.7 98 0.2 NNW 11 17 6 9 1019.2 1014.4 12.2
06/07:00am 18.0 19.4 17.7 98 0.2 NNW 7 11 4 6 1018.7 1013.9 12.0
06/06:30am 18.5 20.7 18.3 99 0.1 NW 4 7 2 4 1018.3 1013.6 11.8
06/06:00am 18.7 20.0 18.4 98 0.2 W 9 17 5 9 1017.9 1013.1 10.4
06/05:30am 18.9 19.9 18.6 98 0.2 SW 11 15 6 8 1016.8 1012.1 10.0
06/05:00am 18.7 20.2 18.0 96 0.4 SE 7 11 4 6 1016.2 1011.4 10.0
06/04:30am 18.4 20.1 18.1 98 0.2 ENE 6 7 3 4 1016.0 1011.2 10.0
06/04:00am 18.5 21.4 18.2 98 0.2 CALM 0 0 0 0 1015.6 1010.8 10.0
06/03:30am 18.3 21.1 18.0 98 0.2 CALM 0 0 0 0 1015.1 1010.3 10.0
06/03:00am 18.2 21.0 17.9 98 0.2 CALM 0 0 0 0 1015.0 1010.2 10.0
06/02:30am 18.1 19.7 17.8 98 0.2 W 6 7 3 4 1015.4 1010.5 10.0
06/02:00am 18.0 20.7 17.7 98 0.2 CALM 0 0 0 0 1015.6 1010.8 10.0
06/01:30am 17.9 19.2 17.6 98 0.2 SW 7 9 4 5 1015.6 1010.8 10.0
06/01:00am 17.7 20.3 17.4 98 0.2 CALM 0 0 0 0 1015.8 1011.0 10.0
06/12:30am 17.7 19.5 17.4 98 0.2 NW 4 7 2 4 1016.0 1011.2 10.0
06/12:00am 17.8 19.1 17.5 98 0.2 SSW 7 11 4 6 1016.3 1011.5 9.6
 
Date/Time
CDT
Temp
°C
App
Temp
°C
Dew
Point
°C
Rel
Hum
%
Delta-T
°C
Wind Press
QNH
hPa
Press
MSL
hPa
Rain since
9am
mm
Dir  Spd
km/h
Gust
km/h
Spd
kts
Gust
kts
05/11:30pm 17.6 18.8 17.3 98 0.2 ESE 7 9 4 5 1016.3 1011.5 9.6
05/11:00pm 17.5 17.9 17.2 98 0.2 ESE 11 17 6 9 1016.4 1011.6 9.6
05/10:30pm 17.4 18.5 17.1 98 0.2 WSW 7 11 4 6 1016.7 1011.9 9.6
05/10:00pm 17.5 17.5 17.2 98 0.2 SE 13 17 7 9 1016.2 1011.4 9.6
05/09:30pm 17.5 17.5 17.2 98 0.2 SW 13 19 7 10 1016.7 1011.9 9.6
05/09:00pm 17.8 19.4 16.8 94 0.6 WNW 4 7 2 4 1016.0 1011.2 9.6
05/08:30pm 17.9 17.5 16.2 90 1.0 S 13 19 7 10 1015.7 1010.9 9.6
05/08:00pm 17.6 16.9 16.5 93 0.7 S 15 22 8 12 1015.8 1011.0 9.6
05/07:30pm 18.1 16.9 16.1 88 1.2 SSW 17 28 9 15 1015.6 1010.8 9.6
05/07:01pm 17.4 13.8 17.1 98 0.2 SW 32 50 17 27 1015.4 1010.5 9.6
05/07:00pm 17.5 13.9 17.2 98 0.2 SW 32 44 17 24 1015.4 1010.5 9.6
05/06:30pm 17.5 12.9 17.2 98 0.2 SW 37 57 20 31 1015.1 1010.3 9.6
05/06:03pm 17.6 11.8 17.3 98 0.2 SW 44 63 24 34 1014.8 1010.0 9.6
05/06:00pm 17.5 11.8 17.2 98 0.2 SW 43 56 23 30 1014.8 1010.0 9.6
05/05:30pm 17.1 10.7 16.9 99 0.1 SW 46 69 25 37 1014.4 1009.6 8.4
05/05:27pm 17.4 10.0 17.2 99 0.1 SW 52 70 28 38 1014.6 1009.8 5.8
05/05:20pm 17.7 10.8 17.4 98 0.2 SW 50 70 27 38 1014.0 1009.1 4.8
05/05:14pm 18.7 14.3 18.4 98 0.2 SW 39 61 21 33 1013.9 1009.0 4.6
05/05:06pm 19.8 18.0 19.5 98 0.2 WSW 28 52 15 28 1013.6 1008.8 3.4
05/05:00pm 21.5 22.3 20.7 95 0.5 SW 17 26 9 14 1013.4 1008.6 2.2
05/04:30pm 22.1 24.0 21.3 95 0.5 WSW 13 15 7 8 1013.3 1008.5 1.8
05/04:00pm 22.4 24.5 20.1 87 1.5 W 9 11 5 6 1013.2 1008.4 1.2
05/03:30pm 23.2 24.5 19.4 79 2.5 NNW 11 17 6 9 1013.2 1008.4 0.4
05/03:00pm 24.6 24.9 17.8 66 4.4 WNW 13 22 7 12 1013.5 1008.7 0.2
05/02:30pm 23.6 22.2 19.7 79 2.6 WNW 26 35 14 19 1014.2 1009.3 0.2
05/02:00pm 25.9 25.4 18.6 64 4.8 WNW 19 28 10 15 1013.6 1008.8 0.2
05/01:30pm 25.6 24.5 17.8 62 5.0 NW 20 30 11 16 1014.1 1009.2 0.0
05/01:00pm 27.6 25.7 16.6 51 7.0 NNW 22 32 12 17 1014.0 1009.1 0.0
05/12:30pm 29.1 26.5 16.0 45 8.3 NW 24 35 13 19 1013.9 1009.0 0.0
05/12:00pm 29.0 27.2 15.9 45 8.3 NNW 20 32 11 17 1014.1 1009.2 0.0
05/11:30am 28.5 26.4 15.1 44 8.4 N 20 28 11 15 1014.2 1009.3 0.0
05/11:00am 27.0 27.6 17.8 57 6.0 NNE 11 19 6 10 1014.5 1009.7 0.0
05/10:30am 25.3 25.1 17.5 62 5.0 N 15 22 8 12 1014.5 1009.7 0.0
05/10:00am 23.5 23.4 17.9 71 3.6 NNW 15 22 8 12 1015.0 1010.2 0.0
05/09:30am 22.7 22.2 17.8 74 3.1 NNW 17 24 9 13 1015.4 1010.5 0.0
05/09:00am 21.8 22.7 17.6 77 2.7 NNE 9 15 5 8 1014.9 1010.1 2.6
05/08:30am 20.7 21.2 19.2 91 1.0 E 15 20 8 11 1014.5 1009.7 2.6
05/08:00am 20.6 21.7 18.0 85 1.7 NE 9 15 5 8 1014.4 1009.6 2.6
05/07:30am 19.7 21.2 19.0 96 0.5 ENE 9 11 5 6 1014.4 1009.6 2.6
05/07:00am 19.4 21.4 19.1 98 0.2 NNE 7 13 4 7 1014.4 1009.6 2.6
05/06:30am 19.7 21.3 17.8 89 1.2 NNE 6 11 3 6 1014.5 1009.7 2.6
05/06:00am 19.7 20.9 17.3 86 1.5 ENE 7 13 4 7 1014.3 1009.5 2.6
05/05:30am 19.8 20.5 17.0 84 1.8 NNE 9 17 5 9 1014.0 1009.1 2.6
05/05:00am 20.0 21.2 16.8 82 2.0 N 6 13 3 7 1014.0 1009.1 2.6
05/04:30am 19.7 21.1 17.8 89 1.2 W 7 11 4 6 1013.9 1009.0 2.6
05/04:00am 19.7 21.0 17.5 87 1.4 NW 7 9 4 5 1013.5 1008.7 2.6
05/03:30am 20.2 20.6 17.2 83 1.9 NNW 11 19 6 10 1013.5 1008.7 2.6
05/03:00am 20.0 20.3 17.8 87 1.4 NNE 13 24 7 13 1013.0 1008.2 2.6
05/02:30am 20.5 21.0 19.2 92 0.8 NNE 15 30 8 16 1012.9 1008.0 2.6
05/02:00am 20.8 21.5 18.9 89 1.2 NNE 13 20 7 11 1013.5 1008.7 2.6
05/01:30am 20.7 22.3 19.9 95 0.5 N 11 17 6 9 1015.0 1010.2 2.6
05/01:00am 21.0 23.2 19.3 90 1.1 NE 6 7 3 4 1015.5 1010.6 2.4
05/12:30am 21.2 23.5 18.6 85 1.7 W 4 9 2 5 1015.1 1010.3 2.4
05/12:00am 21.3 21.5 18.5 84 1.8 W 15 20 8 11 1015.7 1010.9 2.4
 
Date/Time
CDT
Temp
°C
App
Temp
°C
Dew
Point
°C
Rel
Hum
%
Delta-T
°C
Wind Press
QNH
hPa
Press
MSL
hPa
Rain since
9am
mm
Dir  Spd
km/h
Gust
km/h
Spd
kts
Gust
kts
04/11:30pm 20.7 22.7 19.9 95 0.5 W 9 11 5 6 1015.7 1010.9 2.4
04/11:00pm 20.4 22.5 20.1 98 0.2 W 9 28 5 15 1014.4 1009.6 2.4
04/10:30pm 20.0 22.4 19.7 98 0.2 NNE 6 7 3 4 1013.7 1008.9 2.4
04/10:00pm 19.8 21.6 19.5 98 0.2 E 9 13 5 7 1013.6 1008.8 2.4
04/09:30pm 19.6 19.8 19.3 98 0.2 ENE 17 24 9 13 1013.9 1009.0 2.4
04/09:00pm 19.9 20.2 19.6 98 0.2 ENE 17 24 9 13 1014.4 1009.6 2.2
04/08:30pm 20.4 20.3 19.6 95 0.5 N 19 28 10 15 1014.2 1009.3 1.6
04/08:00pm 21.2 21.0 18.4 84 1.8 SW 17 24 9 13 1013.1 1008.3 0.8
04/07:30pm 23.2 22.9 16.5 66 4.2 SW 13 19 7 10 1012.9 1008.0 0.2
04/07:00pm 23.2 21.7 16.3 65 4.3 SSE 19 26 10 14 1012.4 1007.5 0.2
04/06:30pm 23.4 22.4 16.7 66 4.2 SSE 17 26 9 14 1011.4 1006.5 0.2
04/06:00pm 24.1 22.9 17.4 66 4.3 S 20 32 11 17 1011.0 1006.1 0.2
04/05:30pm 24.0 22.1 17.7 68 4.0 S 24 37 13 20 1011.1 1006.2 0.2
04/05:00pm 22.2 19.0 18.6 80 2.3 SSW 33 46 18 25 1012.0 1007.2 0.2
04/04:30pm 22.4 17.3 17.8 75 2.9 S 41 59 22 32 1012.4 1007.5 0.0
04/04:23pm 24.2 19.8 16.7 63 4.7 SSW 35 54 19 29 1012.0 1007.2 0.0
04/04:14pm 24.2 18.4 17.0 64 4.6 SW 43 65 23 35 1011.7 1006.9 0.0
04/04:00pm 22.9 15.5 18.0 74 3.1 SW 54 76 29 41 1011.9 1007.1 0.0
04/03:57pm 24.1 16.8 17.4 66 4.3 SW 52 76 28 41 1011.9 1007.1 0.0
04/03:49pm 26.9 22.2 15.9 51 6.9 W 35 69 19 37 1011.7 1006.9 0.0
04/03:48pm 28.8 24.5 16.0 45 8.1 WNW 33 69 18 37 1011.6 1006.7 0.0
04/03:44pm 31.8 27.8 14.0 34 11.1 WNW 28 50 15 27 1010.4 1005.6 0.0
04/03:30pm 34.1 30.3 12.4 26 13.4 WNW 24 35 13 19 1010.1 1005.2 0.0
04/03:00pm 34.8 30.8 13.0 26 13.6 NW 26 41 14 22 1010.4 1005.6 0.0
04/02:30pm 34.5 31.0 13.3 27 13.2 NW 24 35 13 19 1011.0 1006.1 0.0
04/02:00pm 33.8 30.1 13.8 30 12.5 NW 26 37 14 20 1011.4 1006.5 0.0
04/01:30pm 33.9 30.6 13.9 30 12.6 NNW 24 39 13 21 1011.8 1007.0 0.0
04/01:00pm 32.4 28.4 14.1 33 11.5 N 28 39 15 21 1012.5 1007.6 0.0
04/12:30pm 32.6 29.4 14.2 32 11.5 NNW 24 35 13 19 1012.9 1008.0 0.0
04/12:00pm 31.8 27.8 14.0 34 11.1 NNW 28 44 15 24 1012.9 1008.0 0.0
04/11:30am 30.9 28.2 14.5 37 10.3 NNE 22 33 12 18 1013.1 1008.3 0.0
04/11:00am 29.4 27.2 14.8 41 9.1 N 20 39 11 21 1013.3 1008.5 0.0
04/10:30am 28.6 25.6 14.8 43 8.6 N 24 35 13 19 1013.9 1009.0 0.0
04/10:00am 27.9 25.2 14.5 44 8.3 N 22 35 12 19 1014.2 1009.3 0.0
04/09:30am 27.5 25.7 14.5 45 8.0 NW 17 28 9 15 1014.4 1009.6 0.0
04/09:00am 26.9 24.8 14.6 46 7.6 NNW 19 26 10 14 1014.4 1009.6 0.2
04/08:30am 25.9 24.1 14.4 49 7.1 NNW 17 30 9 16 1014.5 1009.7 0.2
04/08:00am 25.7 22.6 14.5 50 6.9 NNW 24 33 13 18 1013.7 1008.9 0.2
04/07:30am 25.1 22.7 14.3 51 6.6 NNW 20 30 11 16 1013.4 1008.6 0.2
04/07:00am 23.8 23.1 14.2 55 5.8 N 11 17 6 9 1013.1 1008.3 0.2
04/06:30am 24.3 23.0 13.8 52 6.4 N 13 22 7 12 1012.9 1008.0 0.2
04/06:00am 24.9 21.6 14.1 51 6.6 N 24 39 13 21 1013.0 1008.2 0.2
04/05:30am 25.6 21.9 12.8 45 7.7 N 24 35 13 19 1012.4 1007.5 0.2
04/05:00am 25.0 22.5 13.5 48 6.9 NNE 19 28 10 15 1011.9 1007.1 0.2
04/04:30am 25.5 22.5 13.7 48 7.2 N 22 35 12 19 1012.4 1007.5 0.2
04/04:00am 25.0 21.7 13.9 50 6.7 NNE 24 35 13 19 1012.4 1007.5 0.2
04/03:30am 25.4 23.6 13.3 47 7.3 N 15 20 8 11 1012.8 1007.9 0.2
04/03:00am 25.9 24.3 12.7 44 7.9 N 13 22 7 12 1013.0 1008.2 0.2
04/02:30am 26.0 24.4 12.8 44 7.9 NNE 13 22 7 12 1013.0 1008.2 0.2
04/02:00am 24.2 23.4 14.0 53 6.2 ESE 11 15 6 8 1013.3 1008.5 0.2
04/01:30am 24.3 23.6 14.4 54 6.0 ENE 11 15 6 8 1013.3 1008.5 0.2
04/01:00am 24.5 24.4 14.0 52 6.4 NE 7 11 4 6 1013.5 1008.7 0.2
04/12:30am 25.1 23.9 13.9 49 6.8 N 13 24 7 13 1014.0 1009.1 0.2
04/12:00am 25.6 22.5 13.5 47 7.3 N 22 33 12 18 1014.2 1009.3 0.2
 
Date/Time
CDT
Temp
°C
App
Temp
°C
Dew
Point
°C
Rel
Hum
%
Delta-T
°C
Wind Press
QNH
hPa
Press
MSL
hPa
Rain since
9am
mm
Dir  Spd
km/h
Gust
km/h
Spd
kts
Gust
kts
03/11:30pm 25.3 23.5 14.4 50 6.7 NNE 17 22 9 12 1014.4 1009.6 0.2
03/11:00pm 24.3 23.5 15.0 56 5.7 NE 13 17 7 9 1013.5 1008.7 0.2
03/10:30pm 24.1 23.9 14.8 56 5.7 NNE 9 13 5 7 1012.8 1007.9 0.2
03/10:00pm 24.5 24.0 14.9 55 5.9 NE 11 15 6 8 1012.5 1007.6 0.2
03/09:30pm 24.8 23.5 14.9 54 6.1 E 15 20 8 11 1012.4 1007.5 0.2
03/09:00pm 25.6 24.3 14.7 51 6.7 ESE 15 20 8 11 1012.5 1007.6 0.2

Other Formats:

Comma delimited format used in spreadsheet applications
http://www.bom.gov.au/fwo/IDS60801/IDS60801.94474.axf

JavaScript Object Notation format (JSON) in row-major order
http://www.bom.gov.au/fwo/IDS60801/IDS60801.94474.json